createdAt,value
2022-12-07T05:02:54.570Z,23.43
2022-12-07T05:05:26.248Z,23.57
2022-12-07T05:07:57.986Z,24.37
2022-12-07T05:10:29.690Z,23.93
2022-12-07T05:13:01.467Z,24.27
2022-12-07T05:15:33.125Z,24.33
2022-12-07T05:18:06.136Z,24.57
2022-12-07T05:20:42.275Z,23.17
2022-12-07T05:23:14.386Z,24.73
2022-12-07T05:25:46.169Z,25.13
2022-12-07T05:28:17.870Z,24.23
2022-12-07T05:30:49.524Z,24.13
2022-12-07T05:33:22.539Z,23.53
2022-12-07T05:35:54.207Z,23.40
2022-12-07T05:38:25.835Z,24.23
2022-12-07T05:40:59.163Z,24.63
2022-12-07T05:43:30.857Z,23.43
2022-12-07T05:46:02.575Z,23.37
2022-12-07T05:48:35.602Z,21.23
2022-12-07T05:51:07.312Z,22.30
2022-12-07T05:53:38.946Z,22.90
2022-12-07T05:56:10.611Z,21.53
2022-12-07T05:58:42.291Z,24.63
2022-12-07T06:01:13.955Z,24.13
2022-12-07T06:03:46.968Z,22.30
2022-12-07T06:06:18.683Z,22.70
2022-12-07T06:08:50.382Z,24.57
2022-12-07T06:11:22.044Z,24.17
2022-12-07T06:13:53.709Z,24.50
2022-12-07T06:16:25.500Z,25.50
2022-12-07T06:18:58.548Z,24.90
2022-12-07T06:21:30.312Z,24.50
2022-12-07T06:24:01.984Z,23.80
2022-12-07T06:26:33.655Z,25.40
2022-12-07T06:29:05.329Z,25.63
2022-12-07T06:31:37.109Z,25.93
2022-12-07T06:34:12.142Z,24.50
2022-12-07T06:36:43.855Z,24.00
2022-12-07T06:39:15.524Z,26.00
2022-12-07T06:41:47.204Z,26.73
2022-12-07T06:44:18.912Z,25.57
2022-12-07T06:46:50.697Z,24.70
2022-12-07T06:49:23.680Z,27.23
2022-12-07T06:51:55.491Z,26.57
2022-12-07T06:54:27.137Z,27.50
2022-12-07T06:56:58.779Z,26.67
2022-12-07T06:59:30.402Z,26.77
2022-12-07T07:02:02.143Z,27.53
2022-12-07T07:04:35.334Z,25.60
2022-12-07T07:07:07.138Z,25.27
2022-12-07T07:09:38.780Z,27.23
2022-12-07T07:12:10.447Z,23.50
2022-12-07T07:14:42.097Z,27.07
2022-12-07T07:17:13.766Z,25.73
2022-12-07T07:19:46.746Z,26.23
2022-12-07T07:22:18.426Z,26.23
2022-12-07T07:24:50.066Z,26.50
2022-12-07T07:27:21.736Z,25.77
2022-12-07T07:29:53.365Z,26.47
2022-12-07T07:32:25.028Z,27.43
2022-12-07T07:34:58.025Z,27.07
2022-12-07T07:37:29.689Z,27.50
2022-12-07T07:40:01.720Z,28.13
2022-12-07T07:42:33.707Z,26.37
2022-12-07T07:45:06.124Z,27.63
2022-12-07T07:47:37.795Z,25.40
2022-12-07T07:50:11.212Z,26.53
2022-12-07T07:52:42.892Z,25.67
2022-12-07T07:55:14.769Z,26.27
2022-12-07T07:57:52.870Z,25.53
2022-12-07T08:00:26.458Z,26.47
2022-12-07T08:02:58.097Z,27.07
2022-12-07T08:05:31.092Z,27.00
2022-12-07T08:08:02.959Z,26.50
2022-12-07T08:10:34.658Z,26.30
2022-12-07T08:13:06.282Z,23.47
2022-12-07T08:15:38.688Z,25.80
2022-12-07T08:18:10.348Z,25.20
2022-12-07T08:20:43.405Z,23.43
2022-12-07T08:23:15.052Z,22.97
2022-12-07T08:25:46.740Z,22.93
2022-12-07T08:28:18.409Z,22.30
2022-12-07T08:30:50.112Z,22.47
2022-12-07T08:33:21.764Z,21.53
2022-12-07T08:35:54.952Z,21.93
2022-12-07T08:38:31.537Z,21.13
2022-12-07T08:41:03.786Z,22.63
2022-12-07T08:43:35.588Z,18.53
2022-12-07T08:46:10.367Z,19.97
2022-12-07T08:48:46.176Z,19.17
2022-12-07T08:51:19.208Z,18.60
2022-12-07T08:53:51.068Z,18.10
2022-12-07T08:56:22.729Z,17.27
2022-12-07T08:58:54.416Z,17.80
2022-12-07T09:01:26.158Z,17.90
2022-12-07T09:03:57.852Z,21.37
2022-12-07T09:06:33.296Z,17.87
2022-12-07T09:09:05.121Z,16.63
2022-12-07T09:11:36.866Z,16.77
2022-12-07T09:14:08.506Z,15.37
2022-12-07T09:16:40.272Z,16.23
2022-12-07T09:19:12.015Z,16.70
2022-12-07T09:21:45.072Z,14.87
2022-12-07T09:24:16.743Z,14.03
2022-12-07T09:26:48.401Z,14.10
2022-12-07T09:29:20.040Z,14.77
2022-12-07T09:31:52.031Z,15.27
2022-12-07T09:34:23.826Z,14.73
2022-12-07T09:36:56.852Z,16.37
2022-12-07T09:39:28.729Z,18.50
2022-12-07T09:42:00.429Z,15.73
2022-12-07T09:44:32.143Z,16.73
2022-12-07T09:47:03.933Z,15.53
2022-12-07T09:49:35.572Z,14.60
2022-12-07T09:52:19.443Z,13.87
2022-12-07T09:54:51.128Z,13.40
2022-12-07T09:57:28.499Z,12.50
2022-12-07T10:00:01.928Z,13.47
2022-12-07T10:02:36.459Z,12.07
2022-12-07T10:05:10.710Z,13.77
2022-12-07T10:07:43.826Z,12.90
2022-12-07T10:10:17.008Z,11.23
2022-12-07T10:12:56.486Z,10.90
2022-12-07T10:15:45.449Z,10.57
2022-12-07T10:18:36.304Z,10.60
2022-12-07T10:21:12.859Z,10.37
2022-12-07T10:24:00.908Z,10.17
2022-12-07T10:26:33.883Z,11.33
2022-12-07T10:29:15.267Z,10.53
2022-12-07T10:31:47.263Z,10.87
2022-12-07T10:34:22.421Z,10.90
2022-12-07T10:36:54.353Z,11.97
2022-12-07T10:39:27.364Z,12.27
2022-12-07T10:41:59.733Z,11.37
2022-12-07T10:44:32.100Z,11.30
2022-12-07T10:47:13.827Z,11.03
2022-12-07T10:50:12.267Z,11.87
2022-12-07T10:52:58.452Z,12.43
2022-12-07T10:55:36.699Z,11.60
2022-12-07T10:58:28.703Z,11.20
2022-12-07T11:01:03.639Z,10.70
2022-12-07T11:03:42.717Z,10.77
2022-12-07T11:06:18.792Z,10.60
2022-12-07T11:08:58.775Z,10.23
2022-12-07T11:11:34.612Z,10.00
2022-12-07T11:14:11.763Z,10.07
2022-12-07T11:16:56.147Z,10.27
2022-12-07T11:19:48.012Z,9.53
2022-12-07T11:22:21.444Z,9.50
2022-12-07T11:24:57.423Z,9.83
2022-12-07T11:27:34.601Z,9.20
2022-12-07T11:30:15.531Z,8.70
2022-12-07T11:33:11.574Z,9.17
2022-12-07T11:35:48.263Z,8.83
2022-12-07T11:38:26.270Z,8.17
2022-12-07T11:41:01.420Z,9.03
2022-12-07T11:43:34.462Z,9.23
2022-12-07T11:46:07.158Z,8.37
2022-12-07T11:48:40.991Z,8.60
2022-12-07T11:51:12.718Z,8.60
2022-12-07T11:53:46.697Z,8.83
2022-12-07T11:56:20.208Z,8.83
2022-12-07T11:58:55.527Z,8.73
2022-12-07T12:01:33.169Z,8.13
2022-12-07T12:04:08.307Z,9.57
2022-12-07T12:06:40.741Z,8.83
2022-12-07T12:15:40.027Z,9.73
2022-12-07T12:18:27.304Z,9.77
2022-12-07T12:20:59.437Z,9.70
2022-12-07T12:23:36.728Z,10.27
2022-12-07T12:26:08.970Z,10.67
2022-12-07T12:28:46.801Z,10.97
2022-12-07T12:31:33.664Z,10.70
2022-12-07T12:34:30.100Z,12.07
2022-12-07T12:37:01.779Z,10.43
2022-12-07T12:39:33.845Z,10.23
2022-12-07T12:42:06.680Z,11.37
2022-12-07T12:45:06.074Z,11.93
2022-12-07T12:47:54.057Z,11.30
2022-12-07T12:50:27.738Z,11.37
2022-12-07T12:53:15.147Z,12.40
2022-12-07T12:56:06.921Z,9.93
2022-12-07T12:58:43.331Z,9.23
2022-12-07T13:01:45.181Z,10.57
2022-12-07T13:04:51.787Z,9.13
2022-12-07T13:07:50.512Z,9.73
2022-12-07T13:10:47.266Z,9.43
2022-12-07T13:13:35.414Z,9.00
2022-12-07T13:16:38.935Z,9.73
2022-12-07T13:19:59.662Z,8.67
2022-12-07T13:22:47.895Z,8.80
2022-12-07T13:25:27.988Z,8.73
2022-12-07T13:28:02.829Z,9.13
2022-12-07T13:30:35.008Z,8.57
2022-12-07T13:33:06.667Z,9.27
2022-12-07T13:35:38.526Z,10.77
2022-12-07T13:38:23.484Z,10.00
2022-12-07T13:41:02.762Z,8.80
2022-12-07T13:43:44.093Z,9.50
2022-12-07T13:46:15.785Z,9.03
2022-12-07T13:48:48.262Z,9.27
2022-12-07T13:51:22.009Z,9.27
2022-12-07T13:53:55.727Z,9.07
2022-12-07T13:56:28.220Z,8.83
2022-12-07T13:58:59.853Z,8.27
2022-12-07T14:01:31.773Z,8.87
2022-12-07T14:04:18.430Z,8.60
2022-12-07T14:06:51.288Z,8.13
2022-12-07T14:09:24.997Z,8.27
2022-12-07T14:11:57.328Z,8.00
2022-12-07T14:14:36.057Z,8.53
2022-12-07T14:17:13.792Z,8.30
2022-12-07T14:19:50.499Z,8.23
2022-12-07T14:22:30.248Z,9.13
2022-12-07T14:25:22.282Z,10.23
2022-12-07T14:27:55.653Z,9.63
2022-12-07T14:30:28.455Z,9.20
2022-12-07T14:33:01.036Z,8.63
2022-12-07T14:35:32.939Z,8.63
2022-12-07T14:38:04.592Z,9.53
2022-12-07T14:40:37.781Z,9.50
2022-12-07T14:43:11.979Z,8.83
2022-12-07T14:45:43.701Z,9.53
2022-12-07T14:54:00.600Z,10.10
2022-12-07T14:56:33.601Z,10.77
2022-12-07T14:59:05.281Z,10.10
2022-12-07T15:01:36.935Z,10.20
2022-12-07T15:04:08.803Z,9.90
2022-12-07T15:06:40.701Z,10.10
2022-12-07T15:09:12.430Z,9.80
2022-12-07T15:11:45.490Z,10.90
2022-12-07T15:14:17.180Z,9.43
2022-12-07T15:19:40.502Z,9.53
2022-12-07T15:22:12.138Z,9.43
2022-12-07T15:24:43.777Z,10.33
2022-12-07T15:27:17.037Z,8.43
2022-12-07T15:29:48.726Z,7.23
2022-12-07T15:32:20.422Z,7.33
2022-12-07T15:34:52.080Z,6.33
2022-12-07T15:37:23.754Z,6.53
2022-12-07T15:39:55.398Z,6.13
2022-12-07T15:42:28.396Z,6.07
2022-12-07T15:45:00.267Z,6.23
2022-12-07T15:47:32.121Z,6.40
2022-12-07T15:50:03.882Z,5.93
2022-12-07T15:52:35.530Z,6.33
2022-12-07T15:55:08.108Z,6.60
2022-12-07T15:57:41.144Z,7.23
2022-12-07T16:00:13.884Z,7.07
2022-12-07T16:02:45.576Z,7.77
2022-12-07T16:05:17.312Z,8.20
2022-12-07T16:07:49.014Z,8.70
2022-12-07T16:10:20.697Z,9.60
2022-12-07T16:12:53.708Z,9.67
2022-12-07T16:15:25.386Z,9.10
2022-12-07T16:17:57.038Z,10.17
2022-12-07T16:20:28.715Z,9.67
2022-12-07T16:23:00.379Z,9.23
2022-12-07T16:25:32.012Z,9.83
2022-12-07T16:28:05.169Z,9.33
2022-12-07T16:30:36.818Z,8.53
2022-12-07T16:33:08.495Z,8.90
2022-12-07T16:35:40.168Z,8.17
2022-12-07T16:38:11.832Z,8.53
2022-12-07T16:40:43.494Z,8.93
2022-12-07T16:43:16.466Z,7.77
2022-12-07T16:45:49.378Z,7.40
2022-12-07T16:48:21.116Z,6.20
2022-12-07T16:50:52.862Z,6.07
2022-12-07T16:53:24.750Z,5.60
2022-12-07T16:55:56.386Z,5.93
2022-12-07T16:58:29.382Z,6.37
2022-12-07T17:01:01.121Z,9.80
2022-12-07T17:03:32.894Z,8.93
2022-12-07T17:06:04.768Z,6.83
2022-12-07T17:08:36.461Z,6.90
2022-12-07T17:11:11.335Z,7.17
2022-12-07T17:13:44.498Z,8.60
2022-12-07T17:16:16.188Z,9.10
2022-12-07T17:18:47.862Z,9.27
2022-12-07T17:21:19.499Z,10.20
2022-12-07T17:23:51.246Z,9.40
2022-12-07T17:26:24.120Z,9.10
2022-12-07T17:28:57.119Z,12.57
2022-12-07T17:31:28.812Z,10.70
2022-12-07T17:34:00.611Z,9.40
2022-12-07T17:36:32.508Z,11.63
2022-12-07T17:39:07.533Z,17.00
2022-12-07T17:41:39.177Z,13.40
2022-12-07T17:44:13.298Z,14.13
2022-12-07T17:46:45.099Z,12.93
2022-12-07T17:49:16.779Z,17.10
2022-12-07T17:51:48.405Z,16.70
2022-12-07T17:54:20.166Z,20.47
2022-12-07T17:56:51.790Z,15.80
2022-12-07T17:59:24.984Z,16.30
2022-12-07T18:01:56.679Z,16.50
2022-12-07T18:04:28.389Z,15.07
2022-12-07T18:07:00.024Z,18.60
2022-12-07T18:09:31.676Z,15.07
2022-12-07T18:12:03.634Z,15.23
2022-12-07T18:14:36.614Z,15.73
2022-12-07T18:17:08.395Z,16.90
2022-12-07T18:19:40.118Z,16.10
2022-12-07T18:22:11.751Z,15.50
2022-12-07T18:24:43.411Z,16.10
2022-12-07T18:27:15.050Z,19.13
2022-12-07T18:29:48.228Z,16.00
2022-12-07T18:32:19.895Z,15.97
2022-12-07T18:34:51.552Z,15.87
2022-12-07T18:37:23.179Z,15.93
2022-12-07T18:39:54.887Z,16.67
2022-12-07T18:42:26.587Z,15.67
2022-12-07T18:44:59.560Z,16.93
2022-12-07T18:47:31.199Z,15.23
2022-12-07T18:50:03.374Z,16.13
2022-12-07T18:52:35.018Z,15.10
2022-12-07T18:55:07.619Z,15.97
2022-12-07T18:57:39.258Z,16.33
2022-12-07T19:00:13.737Z,14.93
2022-12-07T19:02:45.483Z,14.90
2022-12-07T19:05:17.477Z,16.00
2022-12-07T19:07:49.282Z,15.93
2022-12-07T19:10:20.983Z,15.67
2022-12-07T19:12:52.670Z,16.73
2022-12-07T19:15:25.713Z,16.20
2022-12-07T19:17:57.373Z,14.63
2022-12-07T19:20:29.023Z,16.53
2022-12-07T19:23:00.675Z,15.77
2022-12-07T19:25:32.329Z,16.30
2022-12-07T19:28:04.171Z,15.90
2022-12-07T19:30:37.466Z,15.73
2022-12-07T19:33:09.095Z,16.20
2022-12-07T19:35:40.736Z,16.50
2022-12-07T19:38:12.568Z,16.87
2022-12-07T19:40:44.252Z,18.30
2022-12-07T19:43:15.869Z,16.87
2022-12-07T19:45:48.939Z,16.77
2022-12-07T19:48:20.645Z,17.27
2022-12-07T19:50:52.294Z,17.83
2022-12-07T19:53:23.936Z,16.80
2022-12-07T19:55:55.578Z,17.23
2022-12-07T19:58:27.283Z,17.60
2022-12-07T20:01:03.954Z,18.43
2022-12-07T20:03:35.629Z,17.07
2022-12-07T20:06:08.768Z,17.93
2022-12-07T20:08:41.331Z,16.73
2022-12-07T20:11:13.284Z,18.77
2022-12-07T20:13:44.943Z,16.87
2022-12-07T20:16:20.197Z,16.90
2022-12-07T20:18:57.374Z,16.83
2022-12-07T20:21:29.447Z,18.27
2022-12-07T20:24:01.274Z,17.13
2022-12-07T20:26:33.777Z,16.77
2022-12-07T20:29:09.206Z,16.73
2022-12-07T20:31:45.544Z,17.27
2022-12-07T20:34:17.338Z,17.70
2022-12-07T20:36:48.980Z,18.40
2022-12-07T20:39:20.695Z,18.43
2022-12-07T20:41:52.326Z,17.73
2022-12-07T20:44:24.075Z,18.33
2022-12-07T20:46:57.038Z,17.97
2022-12-07T20:49:28.680Z,17.77
2022-12-07T20:52:00.325Z,17.50
2022-12-07T20:54:31.981Z,17.67
2022-12-07T20:57:03.823Z,17.80
2022-12-07T20:59:41.383Z,17.73
2022-12-07T21:02:14.875Z,16.90
2022-12-07T21:04:46.761Z,17.27
2022-12-07T21:07:18.397Z,17.03
2022-12-07T21:09:50.057Z,17.40
2022-12-07T21:12:21.758Z,18.23
2022-12-07T21:14:53.440Z,17.87
2022-12-07T21:17:26.464Z,16.97
2022-12-07T21:19:58.168Z,17.70
2022-12-07T21:22:29.833Z,17.00
2022-12-07T21:25:01.849Z,16.33
2022-12-07T21:27:34.163Z,17.90
2022-12-07T21:30:07.104Z,18.63
2022-12-07T21:32:40.065Z,18.40
2022-12-07T21:35:11.715Z,19.20
2022-12-07T21:37:43.429Z,18.43
2022-12-07T21:40:17.060Z,18.53
2022-12-07T21:42:48.898Z,17.23
2022-12-07T21:45:20.661Z,17.17
2022-12-07T21:47:53.653Z,17.43
2022-12-07T21:50:25.309Z,18.23
2022-12-07T21:52:56.949Z,16.93
2022-12-07T21:55:28.603Z,17.00
2022-12-07T21:58:00.236Z,16.93
2022-12-07T22:00:31.889Z,16.20
2022-12-07T22:03:04.965Z,17.23
2022-12-07T22:05:36.622Z,16.77
2022-12-07T22:08:08.313Z,16.63
2022-12-07T22:10:40.006Z,16.73
2022-12-07T22:13:11.643Z,16.93
2022-12-07T22:15:43.370Z,16.53
2022-12-07T22:18:16.380Z,16.23
2022-12-07T22:20:49.970Z,16.27
2022-12-07T22:23:24.820Z,16.13
2022-12-07T22:25:56.460Z,16.57
2022-12-07T22:28:28.139Z,16.40
2022-12-07T22:31:02.757Z,17.10
2022-12-07T22:33:35.881Z,16.07
2022-12-07T22:36:08.546Z,17.20
2022-12-07T22:38:40.976Z,17.03
2022-12-07T22:41:15.425Z,16.53
2022-12-07T22:43:47.065Z,18.63
2022-12-07T22:46:18.753Z,17.70
2022-12-07T22:48:51.912Z,17.63
2022-12-07T22:51:24.730Z,17.77
2022-12-07T22:53:57.240Z,17.27
2022-12-07T22:56:29.313Z,17.00
2022-12-07T22:59:01.031Z,17.90
